createdAt,value
2023-05-05T00:02:23.777Z,10.43
2023-05-05T00:04:50.192Z,10.46
2023-05-05T00:07:16.807Z,10.47
2023-05-05T00:09:43.179Z,10.49
2023-05-05T00:12:09.698Z,10.51
2023-05-05T00:14:36.244Z,10.54
2023-05-05T00:17:03.437Z,10.52
2023-05-05T00:19:29.848Z,10.51
2023-05-05T00:21:56.389Z,10.51
2023-05-05T00:24:22.909Z,10.49
2023-05-05T00:26:49.285Z,10.46
2023-05-05T00:29:15.639Z,10.36
2023-05-05T00:31:42.175Z,10.28
2023-05-05T00:34:08.694Z,10.20
2023-05-05T00:36:35.308Z,10.12
2023-05-05T00:39:01.760Z,10.07
2023-05-05T00:41:28.422Z,10.03
2023-05-05T00:43:54.799Z,9.99
2023-05-05T00:46:26.810Z,9.96
2023-05-05T00:48:53.935Z,9.92
2023-05-05T00:51:21.541Z,9.90
2023-05-05T00:53:48.399Z,9.89
2023-05-05T00:56:19.210Z,9.82
2023-05-05T00:58:46.180Z,9.71
2023-05-05T01:01:13.178Z,9.68
2023-05-05T01:03:43.342Z,9.71
2023-05-05T01:06:19.466Z,9.76
2023-05-05T01:09:01.193Z,9.80
2023-05-05T01:11:52.956Z,9.84
2023-05-05T01:14:26.485Z,9.85
2023-05-05T01:16:59.596Z,9.87
2023-05-05T01:19:51.041Z,9.90
2023-05-05T01:22:19.917Z,9.90
2023-05-05T01:25:14.124Z,9.87
2023-05-05T01:28:16.744Z,9.87
2023-05-05T01:30:47.774Z,9.90
2023-05-05T01:33:19.967Z,9.92
2023-05-05T01:35:50.715Z,9.92
2023-05-05T01:38:21.591Z,9.88
2023-05-05T01:41:02.518Z,9.79
2023-05-05T01:43:30.456Z,9.75
2023-05-05T01:45:57.896Z,9.76
2023-05-05T01:48:25.750Z,9.77
2023-05-05T01:50:52.791Z,9.75
2023-05-05T01:53:20.554Z,9.74
2023-05-05T01:55:49.310Z,9.77
2023-05-05T01:58:16.192Z,9.79
2023-05-05T02:00:43.902Z,9.80
2023-05-05T02:03:11.816Z,9.78
2023-05-05T02:05:39.191Z,9.78
2023-05-05T02:08:06.160Z,9.76
2023-05-05T02:10:32.982Z,9.71
2023-05-05T02:13:02.195Z,9.64
2023-05-05T02:15:28.994Z,9.58
2023-05-05T02:17:56.478Z,9.51
2023-05-05T02:20:24.242Z,9.43
2023-05-05T02:22:50.644Z,9.37
2023-05-05T02:25:17.359Z,9.35
2023-05-05T02:27:46.023Z,9.33
2023-05-05T02:30:14.765Z,9.31
2023-05-05T02:32:54.748Z,9.27
2023-05-05T02:35:26.191Z,9.21
2023-05-05T02:38:02.205Z,9.15
2023-05-05T02:40:33.866Z,9.10
2023-05-05T02:43:05.937Z,9.10
2023-05-05T02:45:33.377Z,9.10
2023-05-05T02:48:03.956Z,9.05
2023-05-05T02:50:32.460Z,9.05
2023-05-05T02:53:09.423Z,9.07
2023-05-05T02:55:45.001Z,9.06
2023-05-05T02:58:23.085Z,9.07
2023-05-05T03:00:50.418Z,9.09
2023-05-05T03:03:46.756Z,9.13
2023-05-05T03:06:17.252Z,9.14
2023-05-05T03:09:08.381Z,9.15
2023-05-05T03:11:40.274Z,9.17
2023-05-05T03:14:10.776Z,9.17
2023-05-05T03:16:39.239Z,9.22
2023-05-05T03:19:08.209Z,9.27
2023-05-05T03:21:35.676Z,9.32
2023-05-05T03:24:15.627Z,9.36
2023-05-05T03:26:43.789Z,9.37
2023-05-05T03:29:11.298Z,9.35
2023-05-05T03:31:39.329Z,9.30
2023-05-05T03:34:06.542Z,9.25
2023-05-05T03:36:38.274Z,9.24
2023-05-05T03:39:05.301Z,9.24
2023-05-05T03:41:33.148Z,9.27
2023-05-05T03:44:00.021Z,9.28
2023-05-05T03:46:26.737Z,9.31
2023-05-05T03:48:56.329Z,9.35
2023-05-05T03:51:23.960Z,9.39
2023-05-05T03:53:51.225Z,9.42
2023-05-05T03:56:17.997Z,9.43
2023-05-05T03:58:44.437Z,9.42
2023-05-05T04:01:11.125Z,9.45
2023-05-05T04:03:38.691Z,9.48
2023-05-05T04:06:05.419Z,9.51
2023-05-05T04:08:32.106Z,9.53
2023-05-05T04:11:01.476Z,9.57
2023-05-05T04:13:28.887Z,9.58
2023-05-05T04:15:56.061Z,9.58
2023-05-05T04:18:22.754Z,9.61
2023-05-05T04:20:50.097Z,9.63
2023-05-05T04:23:16.789Z,9.66
2023-05-05T04:25:44.363Z,9.68
2023-05-05T04:28:11.425Z,9.72
2023-05-05T04:30:38.037Z,9.72
2023-05-05T04:33:04.572Z,9.75
2023-05-05T04:35:31.428Z,9.80
2023-05-05T04:37:58.185Z,9.89
2023-05-05T04:40:25.628Z,9.97
2023-05-05T04:42:52.894Z,10.08
2023-05-05T04:45:19.358Z,10.21
2023-05-05T04:47:46.799Z,10.34
2023-05-05T04:50:13.765Z,10.47
2023-05-05T04:52:40.195Z,10.61
2023-05-05T04:55:08.391Z,10.76
2023-05-05T04:57:35.107Z,10.87
2023-05-05T05:00:04.083Z,10.95
2023-05-05T05:02:30.527Z,11.04
2023-05-05T05:04:57.023Z,11.10
2023-05-05T05:07:23.726Z,11.20
2023-05-05T05:09:50.305Z,11.29
2023-05-05T05:12:16.710Z,11.38
2023-05-05T05:14:43.227Z,11.48
2023-05-05T05:17:09.659Z,11.55
2023-05-05T05:19:36.115Z,11.58
2023-05-05T05:22:03.420Z,11.65
2023-05-05T05:24:30.540Z,11.70
2023-05-05T05:26:57.987Z,11.76
2023-05-05T05:29:24.746Z,11.85
2023-05-05T05:31:51.183Z,11.94
2023-05-05T05:34:17.583Z,12.02
2023-05-05T05:36:44.514Z,12.08
2023-05-05T05:39:10.965Z,12.12
2023-05-05T05:41:37.660Z,12.16
2023-05-05T05:44:04.623Z,12.23
2023-05-05T05:46:31.407Z,12.32
2023-05-05T05:48:57.897Z,12.39
2023-05-05T05:51:25.744Z,12.52
2023-05-05T05:53:52.482Z,12.64
2023-05-05T05:56:19.324Z,12.75
2023-05-05T05:58:47.935Z,12.88
2023-05-05T06:01:15.304Z,12.99
2023-05-05T06:03:42.116Z,13.09
2023-05-05T06:06:08.727Z,13.20
2023-05-05T06:08:35.395Z,13.27
2023-05-05T06:11:02.234Z,13.30
2023-05-05T06:13:28.964Z,13.39
2023-05-05T06:15:55.540Z,13.55
2023-05-05T06:18:22.553Z,13.70
2023-05-05T06:20:50.216Z,13.78
2023-05-05T06:23:17.418Z,13.88
2023-05-05T06:25:48.063Z,14.00
2023-05-05T06:28:14.437Z,14.11
2023-05-05T06:30:41.325Z,14.15
2023-05-05T06:33:07.892Z,14.29
2023-05-05T06:35:34.457Z,14.35
2023-05-05T06:38:00.907Z,14.44
2023-05-05T06:40:27.495Z,14.57
2023-05-05T06:42:53.870Z,14.68
2023-05-05T06:45:23.180Z,14.79
2023-05-05T06:47:49.771Z,14.93
2023-05-05T06:50:16.364Z,15.09
2023-05-05T06:52:42.764Z,15.27
2023-05-05T06:55:09.536Z,15.39
2023-05-05T06:57:36.024Z,15.48
2023-05-05T07:00:05.107Z,15.63
2023-05-05T07:02:33.165Z,15.81
2023-05-05T07:04:59.577Z,15.95
2023-05-05T07:07:26.393Z,16.02
2023-05-05T07:09:52.740Z,16.06
2023-05-05T07:12:19.220Z,16.11
2023-05-05T07:14:46.208Z,16.25
2023-05-05T07:17:12.728Z,16.40
2023-05-05T07:19:39.143Z,16.51
2023-05-05T07:22:05.633Z,16.60
2023-05-05T07:24:32.094Z,16.72
2023-05-05T07:26:58.609Z,16.86
2023-05-05T07:29:24.949Z,16.96
2023-05-05T07:31:51.496Z,17.03
2023-05-05T07:34:17.915Z,17.12
2023-05-05T07:36:44.642Z,17.21
2023-05-05T07:39:14.253Z,17.35
2023-05-05T07:41:41.644Z,17.54
2023-05-05T07:44:08.117Z,17.73
2023-05-05T07:46:34.548Z,17.99
2023-05-05T07:49:00.944Z,18.18
2023-05-05T07:51:27.395Z,18.29
2023-05-05T07:53:55.071Z,18.43
2023-05-05T07:56:21.924Z,18.52
2023-05-05T07:58:48.478Z,18.62
2023-05-05T13:02:56.000Z,29.15
2023-05-05T13:05:32.530Z,29.07
2023-05-05T13:07:59.368Z,29.07
2023-05-05T13:10:27.381Z,29.20
2023-05-05T13:12:57.801Z,29.30
2023-05-05T13:15:25.280Z,29.31
2023-05-05T13:17:59.619Z,29.36
2023-05-05T13:20:26.282Z,29.51
2023-05-05T13:22:52.705Z,29.62
2023-05-05T13:25:19.127Z,29.71
2023-05-05T13:27:45.620Z,29.90
2023-05-05T13:30:12.656Z,30.14
2023-05-05T13:32:39.168Z,30.26
2023-05-05T13:35:06.338Z,30.34
2023-05-05T13:37:32.877Z,30.47
2023-05-05T13:39:59.717Z,30.44
2023-05-05T13:42:26.043Z,30.27
2023-05-05T13:44:53.112Z,30.14
2023-05-05T13:47:19.681Z,30.21
2023-05-05T13:49:48.216Z,30.34
2023-05-05T13:52:18.606Z,30.48
2023-05-05T13:54:46.233Z,30.35
2023-05-05T13:57:19.793Z,30.19
2023-05-05T13:59:50.581Z,30.07
2023-05-05T14:02:19.867Z,30.19
2023-05-05T14:04:50.740Z,30.28
2023-05-05T14:07:23.197Z,30.45
2023-05-05T14:09:49.982Z,30.67
2023-05-05T14:12:16.390Z,31.01
2023-05-05T14:14:42.989Z,30.99
2023-05-05T14:17:09.498Z,30.94
2023-05-05T14:19:36.383Z,30.82
2023-05-05T14:22:03.117Z,30.76
2023-05-05T14:24:29.494Z,30.54
2023-05-05T14:26:56.242Z,30.59
2023-05-05T14:29:22.687Z,30.77
2023-05-05T14:31:49.137Z,31.21
2023-05-05T14:34:15.535Z,31.56
2023-05-05T14:36:41.891Z,31.75
2023-05-05T14:39:08.422Z,32.00
2023-05-05T14:41:34.875Z,32.12
2023-05-05T14:44:01.562Z,32.14
2023-05-05T14:46:27.988Z,32.08
2023-05-05T14:48:54.497Z,32.04
2023-05-05T14:51:20.865Z,32.42
2023-05-05T14:53:47.252Z,33.01
2023-05-05T14:56:13.651Z,33.55
2023-05-05T14:58:40.130Z,34.18
2023-05-05T15:01:06.829Z,34.21
2023-05-05T15:03:33.580Z,33.53
2023-05-05T15:06:00.306Z,32.89
2023-05-05T15:08:26.925Z,32.04
2023-05-05T15:10:53.269Z,31.20
2023-05-05T15:13:19.938Z,30.41
2023-05-05T15:15:46.382Z,29.81
2023-05-05T15:18:12.735Z,29.36
2023-05-05T15:20:39.229Z,29.07
2023-05-05T15:23:05.717Z,29.16
2023-05-05T15:25:32.076Z,29.28
2023-05-05T15:28:00.169Z,29.90
2023-05-05T15:30:27.202Z,30.90
2023-05-05T15:32:53.690Z,31.89
2023-05-05T15:35:20.323Z,32.23
2023-05-05T15:37:46.782Z,31.65
2023-05-05T15:40:13.221Z,30.79
2023-05-05T15:42:39.664Z,30.11
2023-05-05T15:45:07.576Z,30.42
2023-05-05T15:47:34.275Z,30.70
2023-05-05T15:50:00.727Z,31.39
2023-05-05T15:52:27.158Z,31.49
2023-05-05T15:54:53.564Z,30.86
2023-05-05T15:57:20.730Z,31.26
2023-05-05T15:59:50.728Z,32.42
2023-05-05T16:02:17.715Z,32.66
2023-05-05T16:04:44.805Z,32.02
2023-05-05T16:07:11.524Z,31.58
2023-05-05T16:09:38.100Z,31.88
2023-05-05T16:12:05.428Z,32.65
2023-05-05T16:14:32.095Z,33.24
2023-05-05T16:16:58.817Z,33.13
2023-05-05T16:19:28.209Z,32.83
2023-05-05T16:21:54.576Z,32.43
2023-05-05T16:24:21.212Z,32.28
2023-05-05T16:26:47.837Z,32.53
2023-05-05T16:29:14.370Z,32.73
2023-05-05T16:31:40.897Z,32.75
2023-05-05T16:34:07.493Z,32.82
2023-05-05T16:36:33.961Z,32.97
2023-05-05T16:39:00.289Z,32.49
2023-05-05T16:41:26.965Z,31.58
2023-05-05T16:43:53.501Z,30.87
2023-05-05T16:46:20.357Z,30.14
2023-05-05T16:48:47.071Z,29.26
2023-05-05T16:51:13.466Z,28.30
2023-05-05T16:53:40.074Z,27.42
2023-05-05T16:56:06.736Z,26.71
2023-05-05T16:58:33.079Z,26.09
2023-05-05T17:01:01.334Z,25.54
2023-05-05T17:03:27.707Z,25.08
2023-05-05T17:05:54.657Z,24.68
2023-05-05T17:08:21.333Z,24.30
2023-05-05T17:10:47.854Z,23.90
2023-05-05T17:13:14.462Z,23.61
2023-05-05T17:15:42.920Z,23.36
2023-05-05T17:18:09.837Z,23.11
2023-05-05T17:20:36.442Z,22.88
2023-05-05T17:23:03.003Z,22.67
2023-05-05T17:25:29.557Z,22.43
2023-05-05T17:27:56.318Z,22.14
2023-05-05T17:30:23.488Z,21.91
2023-05-05T17:32:49.903Z,21.70
2023-05-05T17:35:16.287Z,21.50
2023-05-05T17:37:42.670Z,21.35
2023-05-05T17:40:09.513Z,21.23
2023-05-05T17:42:35.948Z,21.11
2023-05-05T17:45:02.775Z,20.93
2023-05-05T17:47:30.609Z,20.72
2023-05-05T17:49:57.052Z,20.55
2023-05-05T17:52:23.869Z,20.42
2023-05-05T17:54:50.392Z,20.35
2023-05-05T17:57:20.073Z,20.35
2023-05-05T17:59:48.910Z,20.30
2023-05-05T18:02:15.876Z,20.22
2023-05-05T18:04:42.733Z,20.09
2023-05-05T18:07:11.344Z,19.96
2023-05-05T18:09:38.412Z,19.83
2023-05-05T18:12:05.235Z,19.69
2023-05-05T18:14:31.702Z,19.56
2023-05-05T18:16:58.070Z,19.43
2023-05-05T18:19:24.468Z,19.34
2023-05-05T18:21:52.141Z,19.26
2023-05-05T18:24:20.498Z,19.10
2023-05-05T18:26:49.482Z,18.94
2023-05-05T18:29:17.026Z,18.78
2023-05-05T18:31:44.671Z,18.61
2023-05-05T18:34:11.481Z,18.49
2023-05-05T18:36:37.834Z,18.35
2023-05-05T18:39:04.306Z,18.23
2023-05-05T18:41:30.725Z,18.15
2023-05-05T18:43:59.635Z,18.10
2023-05-05T18:46:26.186Z,18.02
2023-05-05T18:48:52.792Z,17.90
2023-05-05T18:51:19.252Z,17.76
2023-05-05T18:53:45.652Z,17.60
2023-05-05T18:56:12.130Z,17.49
2023-05-05T18:58:38.694Z,17.39
2023-05-05T19:01:05.501Z,17.31
2023-05-05T19:03:33.735Z,17.30
2023-05-05T19:06:05.228Z,17.29
2023-05-05T19:08:32.145Z,17.25
2023-05-05T19:10:58.488Z,17.19
2023-05-05T19:13:25.149Z,17.18
2023-05-05T19:15:53.316Z,17.15
2023-05-05T19:18:19.719Z,17.10
2023-05-05T19:20:46.073Z,17.09
2023-05-05T19:23:12.542Z,17.03
2023-05-05T19:25:39.480Z,16.98
2023-05-05T19:28:05.986Z,16.94
2023-05-05T19:30:32.421Z,16.86
2023-05-05T19:32:58.874Z,16.81
2023-05-05T19:35:25.494Z,16.77
2023-05-05T19:37:51.830Z,16.70
2023-05-05T19:40:18.277Z,16.56
2023-05-05T19:42:44.627Z,16.49
2023-05-05T19:45:11.149Z,16.43
2023-05-05T19:47:37.482Z,16.37
2023-05-05T19:50:04.530Z,16.32
2023-05-05T19:52:31.025Z,16.29
2023-05-05T19:54:58.079Z,16.17
2023-05-05T19:57:24.501Z,16.04
2023-05-05T19:59:51.024Z,15.92
2023-05-05T20:02:17.720Z,15.85
2023-05-05T20:04:44.167Z,15.75
2023-05-05T20:07:10.566Z,15.66
2023-05-05T20:09:37.137Z,15.58
2023-05-05T20:12:03.931Z,15.48
2023-05-05T20:14:30.974Z,15.42
2023-05-05T20:16:57.476Z,15.36
2023-05-05T20:19:24.001Z,15.27
2023-05-05T20:21:50.447Z,15.21
2023-05-05T20:24:16.879Z,15.15
2023-05-05T20:26:43.311Z,15.06
2023-05-05T20:29:09.716Z,14.97
2023-05-05T20:31:36.726Z,14.91
2023-05-05T20:34:03.245Z,14.82
2023-05-05T20:36:29.686Z,14.75
2023-05-05T20:38:56.058Z,14.65
2023-05-05T20:41:22.545Z,14.57
2023-05-05T20:43:48.982Z,14.51
2023-05-05T20:46:15.739Z,14.49
2023-05-05T20:48:43.142Z,14.44
2023-05-05T20:51:09.693Z,14.41
2023-05-05T20:53:36.121Z,14.35
2023-05-05T20:56:02.977Z,14.32
2023-05-05T20:58:29.522Z,14.30
2023-05-05T21:00:56.188Z,14.28
2023-05-05T21:03:22.771Z,14.21
2023-05-05T21:05:49.302Z,14.14
2023-05-05T21:08:15.656Z,14.09
2023-05-05T21:10:42.058Z,14.00
2023-05-05T21:13:08.534Z,13.96
2023-05-05T21:15:38.286Z,13.93
2023-05-05T21:18:05.901Z,13.87
2023-05-05T21:20:32.454Z,13.82
2023-05-05T21:22:59.062Z,13.80
2023-05-05T21:25:26.080Z,13.74
2023-05-05T21:27:52.593Z,13.70
2023-05-05T21:30:19.188Z,13.64
2023-05-05T21:32:45.648Z,13.56
2023-05-05T21:35:12.539Z,13.53
2023-05-05T21:37:39.550Z,13.50
2023-05-05T21:40:13.005Z,13.49
2023-05-05T21:42:40.793Z,13.46
2023-05-05T21:45:08.084Z,13.44
2023-05-05T21:47:35.030Z,13.40
2023-05-05T21:50:01.542Z,13.35
2023-05-05T21:52:27.974Z,13.31
2023-05-05T21:54:54.410Z,13.28
2023-05-05T21:57:20.766Z,13.26
2023-05-05T21:59:47.170Z,13.28
2023-05-05T22:02:13.583Z,13.28
2023-05-05T22:04:41.413Z,13.26
2023-05-05T22:07:08.030Z,13.23
2023-05-05T22:09:34.525Z,13.23
2023-05-05T22:12:01.778Z,13.18
2023-05-05T22:14:28.077Z,13.15
2023-05-05T22:16:54.664Z,13.16
2023-05-05T22:19:21.366Z,13.18
2023-05-05T22:21:47.694Z,13.20
2023-05-05T22:24:14.439Z,13.24
2023-05-05T22:26:42.463Z,13.24
2023-05-05T22:29:10.073Z,13.27
2023-05-05T22:31:36.999Z,13.28
2023-05-05T22:34:03.583Z,13.28
2023-05-05T22:36:30.722Z,13.28
2023-05-05T22:38:57.190Z,13.25
2023-05-05T22:41:24.199Z,13.24
2023-05-05T22:43:51.131Z,13.22
2023-05-05T22:46:17.573Z,13.23
2023-05-05T22:48:43.901Z,13.23
2023-05-05T22:51:10.800Z,13.25
2023-05-05T22:53:38.171Z,13.25
2023-05-05T22:56:05.609Z,13.24
2023-05-05T22:58:32.053Z,13.22
2023-05-05T23:00:58.435Z,13.22
2023-05-05T23:03:24.781Z,13.21
2023-05-05T23:05:51.403Z,13.22
2023-05-05T23:08:17.860Z,13.21
2023-05-05T23:10:44.288Z,13.17
2023-05-05T23:13:10.836Z,13.15
2023-05-05T23:15:37.331Z,13.12
2023-05-05T23:18:03.740Z,13.12
2023-05-05T23:20:30.224Z,13.09
2023-05-05T23:22:56.694Z,13.08
2023-05-05T23:25:23.054Z,13.08
2023-05-05T23:27:49.985Z,13.05
2023-05-05T23:30:16.588Z,12.99
2023-05-05T23:32:44.191Z,12.97
2023-05-05T23:35:11.179Z,12.96
2023-05-05T23:37:37.800Z,12.94
2023-05-05T23:40:06.207Z,12.89
2023-05-05T23:42:32.766Z,12.86
2023-05-05T23:45:00.244Z,12.83
2023-05-05T23:47:27.175Z,12.79
2023-05-05T23:49:53.505Z,12.74
2023-05-05T23:52:20.287Z,12.72
2023-05-05T23:54:46.691Z,12.69
2023-05-05T23:57:13.065Z,12.68
2023-05-05T23:59:39.936Z,12.63
